Time;durP1;ratioP1;P1;durP2;ratioP2;P2;SDS_P1;SDS_P2;PMS_P1;PMS_P2;Temp;Humidity;BMP_temperature;BMP_pressure;BME280_temperature;BME280_humidity;BME280_pressure;Samples;Min_cycle;Max_cycle;Signal;HPM_P1;HPM_P2
2023/06/01 00:02:37;;;;;;;3.05;1.65;;;;;;;;;;8296375;28;20095;-61
2023/06/01 00:06:38;;;;;;;2.78;1.60;;;;;;;;;;8295977;28;20047;-62
2023/06/01 00:10:38;;;;;;;2.10;1.50;;;;;;;;;;8297358;28;20028;-62
2023/06/01 00:14:38;;;;;;;3.05;1.70;;;;;;;;;;8298055;28;20047;-62
2023/06/01 00:18:38;;;;;;;1.75;1.45;;;;;;;;;;8297021;28;20033;-62
2023/06/01 00:22:38;;;;;;;2.10;1.40;;;;;;;;;;8298800;28;20025;-62
2023/06/01 00:26:39;;;;;;;5.03;1.70;;;;;;;;;;8294024;28;20025;-61
2023/06/01 00:30:39;;;;;;;3.35;1.65;;;;;;;;;;8295803;28;20037;-62
2023/06/01 00:34:39;;;;;;;4.05;1.50;;;;;;;;;;8301986;28;20068;-61
2023/06/01 00:38:39;;;;;;;7.22;1.83;;;;;;;;;;8301399;28;20091;-62
2023/06/01 00:42:39;;;;;;;4.38;1.67;;;;;;;;;;8303008;28;20382;-62
2023/06/01 00:46:40;;;;;;;2.80;1.65;;;;;;;;;;8301891;28;20051;-62
2023/06/01 00:50:40;;;;;;;2.67;1.70;;;;;;;;;;8303803;28;20087;-62
2023/06/01 00:54:40;;;;;;;3.15;1.60;;;;;;;;;;8303402;28;20278;-62
2023/06/01 00:58:41;;;;;;;3.07;1.63;;;;;;;;;;8301989;28;20021;-62
2023/06/01 01:02:41;;;;;;;4.18;1.98;;;;;;;;;;8302919;28;21225;-62
2023/06/01 01:06:48;;;;;;;3.13;1.85;;;;;;;;;;8301474;28;20816;-62
2023/06/01 01:10:51;;;;;;;2.25;1.50;;;;;;;;;;8301070;28;20026;-62
2023/06/01 01:15:08;;;;;;;3.63;1.70;;;;;;;;;;8304851;28;20063;-61
2023/06/01 01:19:16;;;;;;;5.93;1.70;;;;;;;;;;8302137;28;20048;-61
2023/06/01 01:23:25;;;;;;;2.72;1.67;;;;;;;;;;8301692;28;20025;-61
2023/06/01 01:27:43;;;;;;;1.60;1.45;;;;;;;;;;8300500;28;20136;-61
2023/06/01 01:31:44;;;;;;;3.63;1.77;;;;;;;;;;8301069;28;20025;-61
2023/06/01 01:35:45;;;;;;;5.18;1.70;;;;;;;;;;8301906;28;21028;-61
2023/06/01 01:39:45;;;;;;;3.17;1.67;;;;;;;;;;8301860;28;20792;-62
2023/06/01 01:43:45;;;;;;;3.63;1.88;;;;;;;;;;8301226;28;20025;-62
2023/06/01 01:47:54;;;;;;;2.97;1.90;;;;;;;;;;8303010;28;20048;-62
2023/06/01 01:52:04;;;;;;;3.90;1.90;;;;;;;;;;8301741;28;20504;-62
2023/06/01 01:56:05;;;;;;;2.70;1.92;;;;;;;;;;8303606;28;20915;-62
2023/06/01 02:00:07;;;;;;;7.55;2.17;;;;;;;;;;8301380;28;20623;-61
2023/06/01 02:04:07;;;;;;;2.05;1.58;;;;;;;;;;8301726;28;20060;-61
2023/06/01 02:08:08;;;;;;;2.95;1.58;;;;;;;;;;8301449;28;20040;-62
2023/06/01 02:12:08;;;;;;;7.53;1.97;;;;;;;;;;8300903;28;20022;-61
2023/06/01 02:16:08;;;;;;;2.00;1.80;;;;;;;;;;8298687;28;20275;-61
2023/06/01 02:20:09;;;;;;;2.85;1.60;;;;;;;;;;8301204;28;20268;-61
2023/06/01 02:24:09;;;;;;;2.00;1.70;;;;;;;;;;8302340;28;20018;-61
2023/06/01 02:28:10;;;;;;;3.28;1.90;;;;;;;;;;8298693;28;20060;-61
2023/06/01 02:32:10;;;;;;;4.50;1.63;;;;;;;;;;8301010;28;20433;-62
2023/06/01 02:36:10;;;;;;;4.20;2.10;;;;;;;;;;8301517;28;20032;-62
2023/06/01 02:40:11;;;;;;;3.20;1.88;;;;;;;;;;8301155;28;20833;-62
2023/06/01 02:44:11;;;;;;;2.50;1.60;;;;;;;;;;8299019;28;20639;-62
2023/06/01 02:48:11;;;;;;;2.08;1.73;;;;;;;;;;8299293;28;20065;-61
2023/06/01 02:52:11;;;;;;;2.50;1.70;;;;;;;;;;8298298;28;20118;-61
2023/06/01 02:56:12;;;;;;;2.67;2.03;;;;;;;;;;8300397;28;20025;-61
2023/06/01 03:00:18;;;;;;;2.05;1.75;;;;;;;;;;8297231;28;20675;-61
2023/06/01 03:04:18;;;;;;;3.28;1.73;;;;;;;;;;8300046;28;20013;-61
2023/06/01 03:08:19;;;;;;;3.83;1.57;;;;;;;;;;8301356;28;20140;-62
2023/06/01 03:12:19;;;;;;;3.60;2.17;;;;;;;;;;8298833;28;20873;-62
2023/06/01 03:16:19;;;;;;;1.92;1.60;;;;;;;;;;8299393;28;20130;-62
2023/06/01 03:20:19;;;;;;;3.35;1.70;;;;;;;;;;8298822;28;20513;-62
2023/06/01 03:24:19;;;;;;;5.03;1.80;;;;;;;;;;8301652;28;20029;-61
2023/06/01 03:28:20;;;;;;;2.47;1.80;;;;;;;;;;8299252;28;20028;-61
2023/06/01 03:32:20;;;;;;;2.13;1.40;;;;;;;;;;8300109;28;20033;-61
2023/06/01 03:36:21;;;;;;;2.92;1.83;;;;;;;;;;8298563;28;20020;-62
2023/06/01 03:40:21;;;;;;;1.98;1.60;;;;;;;;;;8298586;28;20648;-61
2023/06/01 03:44:21;;;;;;;6.83;1.83;;;;;;;;;;8296713;28;20037;-61
2023/06/01 03:48:21;;;;;;;3.63;1.52;;;;;;;;;;8297442;28;21015;-61
2023/06/01 03:52:22;;;;;;;2.80;1.75;;;;;;;;;;8300626;28;20029;-61
2023/06/01 03:56:22;;;;;;;2.23;1.57;;;;;;;;;;8296430;28;20025;-61
2023/06/01 04:00:23;;;;;;;2.57;1.90;;;;;;;;;;8299050;28;20027;-61
2023/06/01 04:04:28;;;;;;;3.08;1.70;;;;;;;;;;8296795;28;20036;-62
2023/06/01 04:08:29;;;;;;;3.15;1.70;;;;;;;;;;8301481;28;20083;-61
2023/06/01 04:12:29;;;;;;;3.28;1.52;;;;;;;;;;8303651;28;21103;-61
2023/06/01 04:16:29;;;;;;;4.13;1.93;;;;;;;;;;8304696;28;20730;-61
2023/06/01 04:20:31;;;;;;;4.22;1.50;;;;;;;;;;8306701;28;20319;-61
2023/06/01 04:24:31;;;;;;;2.10;1.60;;;;;;;;;;8306282;28;20057;-61
2023/06/01 04:28:32;;;;;;;5.63;1.90;;;;;;;;;;8303532;28;20029;-61
2023/06/01 04:32:34;;;;;;;2.92;1.70;;;;;;;;;;8304553;28;20029;-61
2023/06/01 04:36:38;;;;;;;4.50;1.70;;;;;;;;;;8304671;28;20029;-61
2023/06/01 04:40:39;;;;;;;3.60;1.85;;;;;;;;;;8302536;28;20029;-61
2023/06/01 04:44:41;;;;;;;2.22;1.65;;;;;;;;;;8303172;28;20151;-61
2023/06/01 04:48:44;;;;;;;1.73;1.40;;;;;;;;;;8303537;28;20050;-62
2023/06/01 04:52:44;;;;;;;3.13;1.73;;;;;;;;;;8302978;28;20147;-62
2023/06/01 04:56:44;;;;;;;6.05;1.63;;;;;;;;;;8304325;28;20026;-62
2023/06/01 05:00:45;;;;;;;2.53;1.48;;;;;;;;;;8301393;28;20037;-62
2023/06/01 05:04:45;;;;;;;3.30;1.90;;;;;;;;;;8303198;28;20124;-62
2023/06/01 05:08:45;;;;;;;3.37;1.80;;;;;;;;;;8302504;28;20025;-62
2023/06/01 05:12:46;;;;;;;3.42;1.63;;;;;;;;;;8304380;28;20040;-61
2023/06/01 05:16:46;;;;;;;1.90;1.63;;;;;;;;;;8304054;28;20068;-62
2023/06/01 05:20:46;;;;;;;2.88;1.75;;;;;;;;;;8298590;28;20671;-62
2023/06/01 05:24:46;;;;;;;3.80;1.63;;;;;;;;;;8302118;28;20498;-62
2023/06/01 05:28:47;;;;;;;2.20;1.70;;;;;;;;;;8302774;28;20035;-61
2023/06/01 05:32:47;;;;;;;2.80;1.57;;;;;;;;;;8303842;28;20033;-62
2023/06/01 05:36:48;;;;;;;4.97;1.73;;;;;;;;;;8301347;28;20756;-62
2023/06/01 05:40:48;;;;;;;4.78;1.88;;;;;;;;;;8299929;28;20435;-62
2023/06/01 05:44:49;;;;;;;4.05;1.90;;;;;;;;;;8303828;28;20025;-62
2023/06/01 05:48:50;;;;;;;6.78;1.70;;;;;;;;;;8298696;28;20083;-62
2023/06/01 05:52:50;;;;;;;5.43;1.88;;;;;;;;;;8301278;28;20029;-62
2023/06/01 05:56:50;;;;;;;3.33;1.80;;;;;;;;;;8302032;28;20040;-62
2023/06/01 06:00:50;;;;;;;4.17;1.63;;;;;;;;;;8300792;28;20039;-62
2023/06/01 06:04:50;;;;;;;6.53;1.80;;;;;;;;;;8301392;28;20025;-62
2023/06/01 06:08:51;;;;;;;8.30;1.60;;;;;;;;;;8299901;28;20032;-62
2023/06/01 06:12:51;;;;;;;5.97;2.00;;;;;;;;;;8300858;28;20176;-62
2023/06/01 06:16:52;;;;;;;3.60;1.70;;;;;;;;;;8297246;28;20041;-62
2023/06/01 06:20:52;;;;;;;5.47;1.90;;;;;;;;;;8300370;28;20132;-62
2023/06/01 06:24:52;;;;;;;4.72;1.98;;;;;;;;;;8302049;28;20040;-62
2023/06/01 06:28:52;;;;;;;2.88;1.75;;;;;;;;;;8298146;28;20134;-62
2023/06/01 06:32:52;;;;;;;3.10;1.50;;;;;;;;;;8295283;28;20037;-62
2023/06/01 06:36:53;;;;;;;2.88;1.70;;;;;;;;;;8297468;28;20056;-62
2023/06/01 06:40:53;;;;;;;2.97;1.80;;;;;;;;;;8295586;28;20115;-62
2023/06/01 06:44:53;;;;;;;2.60;1.87;;;;;;;;;;8293302;28;20024;-62
2023/06/01 06:48:55;;;;;;;3.38;1.70;;;;;;;;;;8295472;28;20323;-62
2023/06/01 06:52:55;;;;;;;3.13;1.92;;;;;;;;;;8297619;28;20021;-62
2023/06/01 06:56:55;;;;;;;2.42;1.77;;;;;;;;;;8294221;28;20543;-63
2023/06/01 07:00:56;;;;;;;4.07;1.50;;;;;;;;;;8294304;28;20592;-62
2023/06/01 07:04:56;;;;;;;3.10;1.80;;;;;;;;;;8294289;28;20060;-62
2023/06/01 07:08:56;;;;;;;5.05;1.63;;;;;;;;;;8293835;28;20036;-62
2023/06/01 07:12:56;;;;;;;3.67;1.70;;;;;;;;;;8293259;28;20112;-62
2023/06/01 07:16:57;;;;;;;2.63;1.52;;;;;;;;;;8295185;28;20565;-63
2023/06/01 07:20:57;;;;;;;3.33;1.83;;;;;;;;;;8295612;28;20025;-62
2023/06/01 07:24:57;;;;;;;4.10;1.77;;;;;;;;;;8292912;28;21122;-62
2023/06/01 07:28:59;;;;;;;1.90;1.50;;;;;;;;;;8293650;28;20076;-62
2023/06/01 07:32:59;;;;;;;3.22;1.70;;;;;;;;;;8295476;28;20562;-63
2023/06/01 07:37:01;;;;;;;4.68;1.77;;;;;;;;;;8293504;28;20037;-62
2023/06/01 07:41:02;;;;;;;2.55;1.75;;;;;;;;;;8296655;28;20029;-62
2023/06/01 07:45:02;;;;;;;4.95;1.73;;;;;;;;;;8294123;28;20021;-62
2023/06/01 07:49:03;;;;;;;1.93;1.60;;;;;;;;;;8292997;28;20037;-62
2023/06/01 07:53:03;;;;;;;2.42;1.60;;;;;;;;;;8296432;28;20510;-62
2023/06/01 07:57:04;;;;;;;4.28;1.70;;;;;;;;;;8296568;28;20025;-62
2023/06/01 08:01:04;;;;;;;2.85;1.60;;;;;;;;;;8295921;28;20109;-62
2023/06/01 08:05:06;;;;;;;4.20;2.10;;;;;;;;;;8295914;28;20080;-62
2023/06/01 08:09:07;;;;;;;4.78;1.80;;;;;;;;;;8294816;28;20029;-63
2023/06/01 08:13:07;;;;;;;6.97;1.80;;;;;;;;;;8298318;28;20022;-62
2023/06/01 08:17:07;;;;;;;4.05;1.67;;;;;;;;;;8295351;28;20708;-62
2023/06/01 08:21:10;;;;;;;7.63;2.10;;;;;;;;;;8294644;28;20132;-62
2023/06/01 08:25:11;;;;;;;3.35;1.77;;;;;;;;;;8294820;28;20025;-62
2023/06/01 08:29:11;;;;;;;2.00;1.70;;;;;;;;;;8294668;28;20648;-62
2023/06/01 08:33:11;;;;;;;3.50;1.85;;;;;;;;;;8295283;28;20036;-62
2023/06/01 08:37:13;;;;;;;4.60;1.85;;;;;;;;;;8295376;28;20850;-62
2023/06/01 08:41:37;;;;;;;3.30;2.08;;;;;;;;;;8286030;28;20063;-62
2023/06/01 08:45:37;;;;;;;6.22;2.03;;;;;;;;;;8290777;28;20732;-62
2023/06/01 12:07:08;;;;;;;2.33;1.48;;;;;;;;;;8300074;23;20995;-75
2023/06/01 12:11:08;;;;;;;2.65;1.50;;;;;;;;;;8267007;28;20033;-76
2023/06/01 12:15:09;;;;;;;3.03;1.60;;;;;;;;;;8272610;28;20026;-75
2023/06/01 12:19:10;;;;;;;4.03;1.83;;;;;;;;;;8273993;28;20081;-75
2023/06/01 12:23:14;;;;;;;2.63;1.60;;;;;;;;;;8274265;28;20092;-75
2023/06/01 12:27:15;;;;;;;4.10;1.50;;;;;;;;;;8249649;28;20118;-75
2023/06/01 12:31:15;;;;;;;2.92;1.48;;;;;;;;;;8266473;28;20040;-76
2023/06/01 12:35:17;;;;;;;1.70;1.30;;;;;;;;;;8296745;28;20029;-74
2023/06/01 12:39:35;;;;;;;4.20;1.70;;;;;;;;;;8285837;28;20026;-75
2023/06/01 12:43:36;;;;;;;4.60;1.80;;;;;;;;;;8272628;28;20025;-75
2023/06/01 12:47:39;;;;;;;6.53;1.57;;;;;;;;;;8271943;28;20967;-75
2023/06/01 12:51:40;;;;;;;2.70;1.40;;;;;;;;;;8263675;28;20049;-74
2023/06/01 12:55:40;;;;;;;2.83;1.40;;;;;;;;;;8264839;28;20890;-75
2023/06/01 12:59:40;;;;;;;4.53;1.65;;;;;;;;;;8269540;28;20114;-76
2023/06/01 13:03:41;;;;;;;3.33;1.55;;;;;;;;;;8271588;28;20053;-76
2023/06/01 13:07:41;;;;;;;3.10;1.40;;;;;;;;;;8262063;28;20034;-76
2023/06/01 13:11:42;;;;;;;1.40;1.30;;;;;;;;;;8244504;28;20017;-75
2023/06/01 13:15:43;;;;;;;3.03;1.20;;;;;;;;;;8260833;28;20859;-75
2023/06/01 13:19:43;;;;;;;5.03;1.60;;;;;;;;;;8243347;28;20023;-75
2023/06/01 13:23:43;;;;;;;4.22;1.77;;;;;;;;;;8243765;28;20863;-75
2023/06/01 13:27:43;;;;;;;6.13;1.67;;;;;;;;;;8236572;28;20085;-76
2023/06/01 13:31:43;;;;;;;3.03;1.60;;;;;;;;;;8242378;28;20026;-76
2023/06/01 13:35:43;;;;;;;3.05;1.60;;;;;;;;;;8272659;28;20014;-76
2023/06/01 13:39:44;;;;;;;2.30;1.20;;;;;;;;;;8274685;28;20026;-76
2023/06/01 13:43:44;;;;;;;1.85;1.35;;;;;;;;;;8268771;28;20028;-74
2023/06/01 13:57:02;;;;;;;6.53;1.45;;;;;;;;;;8302132;28;20335;-77
2023/06/01 14:01:09;;;;;;;1.80;1.42;;;;;;;;;;8260918;28;20420;-78
2023/06/01 14:05:10;;;;;;;3.10;1.50;;;;;;;;;;8273458;28;20034;-76
2023/06/01 14:09:10;;;;;;;3.53;1.60;;;;;;;;;;8253553;28;20030;-76
2023/06/01 14:13:11;;;;;;;1.48;1.38;;;;;;;;;;8267618;28;20049;-75
2023/06/01 14:17:11;;;;;;;3.88;1.52;;;;;;;;;;8277111;28;20038;-77
2023/06/01 14:21:11;;;;;;;1.83;1.33;;;;;;;;;;8276754;28;20037;-76
2023/06/01 14:25:13;;;;;;;3.95;1.50;;;;;;;;;;8275570;28;20029;-76
2023/06/01 14:29:13;;;;;;;2.05;1.60;;;;;;;;;;8265512;28;20053;-77
2023/06/01 14:33:14;;;;;;;2.30;1.60;;;;;;;;;;8239612;28;20042;-76
2023/06/01 14:37:14;;;;;;;3.70;1.60;;;;;;;;;;8233932;28;20022;-76
2023/06/01 14:41:14;;;;;;;2.73;1.80;;;;;;;;;;8246832;28;20034;-75
2023/06/01 14:45:15;;;;;;;5.20;1.45;;;;;;;;;;8269364;28;20711;-76
2023/06/01 14:49:16;;;;;;;3.57;1.87;;;;;;;;;;8276620;28;20030;-76
2023/06/01 14:53:16;;;;;;;3.58;1.50;;;;;;;;;;8247126;28;20537;-76
2023/06/01 14:57:16;;;;;;;2.35;1.80;;;;;;;;;;8269981;28;20041;-76
2023/06/01 15:01:16;;;;;;;2.30;1.70;;;;;;;;;;8269968;28;20043;-75
2023/06/01 15:05:17;;;;;;;3.30;1.70;;;;;;;;;;8231612;28;20036;-76
2023/06/01 15:32:35;;;;;;;4.32;1.80;;;;;;;;;;8301592;28;20076;-75
2023/06/01 15:36:36;;;;;;;2.97;1.85;;;;;;;;;;8289907;28;20045;-76
2023/06/01 15:40:36;;;;;;;3.47;1.80;;;;;;;;;;8262575;28;20150;-77
2023/06/01 15:44:40;;;;;;;10.00;2.53;;;;;;;;;;8295729;28;20112;-76
2023/06/01 15:48:42;;;;;;;6.32;2.30;;;;;;;;;;8252462;28;20508;-75
2023/06/01 15:52:42;;;;;;;5.97;2.22;;;;;;;;;;8261081;28;20026;-75
2023/06/01 15:56:43;;;;;;;4.85;2.53;;;;;;;;;;8283900;28;20568;-76
2023/06/01 16:00:43;;;;;;;5.85;2.80;;;;;;;;;;8278234;28;20042;-75
2023/06/01 16:04:43;;;;;;;3.67;2.60;;;;;;;;;;8269787;28;20033;-75
2023/06/01 16:08:43;;;;;;;7.85;3.25;;;;;;;;;;8261881;28;20593;-75
2023/06/01 16:12:43;;;;;;;5.47;3.00;;;;;;;;;;8281278;28;20266;-75
2023/06/01 16:16:44;;;;;;;6.50;3.33;;;;;;;;;;8287441;28;20038;-76
2023/06/01 16:20:44;;;;;;;4.93;3.30;;;;;;;;;;8279772;28;20033;-77
2023/06/01 16:24:44;;;;;;;4.97;3.28;;;;;;;;;;8292495;28;20276;-75
2023/06/01 16:28:49;;;;;;;6.63;3.60;;;;;;;;;;8287319;28;20350;-77
2023/06/01 16:32:49;;;;;;;12.45;3.90;;;;;;;;;;8288716;28;20038;-76
2023/06/01 16:36:50;;;;;;;9.23;3.90;;;;;;;;;;8297195;28;20087;-75
2023/06/01 16:40:50;;;;;;;6.97;4.40;;;;;;;;;;8277291;28;20033;-75
2023/06/01 16:44:51;;;;;;;8.43;4.00;;;;;;;;;;8296730;28;20396;-79
2023/06/01 16:48:51;;;;;;;4.90;3.78;;;;;;;;;;8283481;28;20525;-75
2023/06/01 16:52:51;;;;;;;7.07;3.90;;;;;;;;;;8271982;28;20033;-75
2023/06/01 16:56:51;;;;;;;5.63;4.30;;;;;;;;;;8279623;28;20100;-75
2023/06/01 17:00:52;;;;;;;8.05;4.90;;;;;;;;;;8281456;28;20034;-75
2023/06/01 17:04:52;;;;;;;9.27;4.45;;;;;;;;;;8274027;28;21085;-75
2023/06/01 17:08:54;;;;;;;6.80;4.23;;;;;;;;;;8274974;28;20044;-76
2023/06/01 17:12:54;;;;;;;6.57;4.70;;;;;;;;;;8295822;28;20056;-75
2023/06/01 17:16:54;;;;;;;7.85;4.47;;;;;;;;;;8254296;28;20050;-74
2023/06/01 17:20:54;;;;;;;8.37;4.20;;;;;;;;;;8282787;28;20495;-75
2023/06/01 17:24:55;;;;;;;8.00;4.87;;;;;;;;;;8278183;28;20029;-74
2023/06/01 17:28:56;;;;;;;7.07;5.22;;;;;;;;;;8284154;28;20030;-75
2023/06/01 17:32:56;;;;;;;8.20;5.13;;;;;;;;;;8284748;28;20076;-76
2023/06/01 17:36:56;;;;;;;7.22;4.65;;;;;;;;;;8297067;28;20077;-75
2023/06/01 17:40:56;;;;;;;7.13;4.88;;;;;;;;;;8279176;28;20033;-75
2023/06/01 17:44:57;;;;;;;8.48;5.07;;;;;;;;;;8288213;28;20097;-74
2023/06/01 17:48:57;;;;;;;7.47;5.60;;;;;;;;;;8282043;28;20050;-75
2023/06/01 17:52:57;;;;;;;7.63;5.10;;;;;;;;;;8260382;28;20017;-76
2023/06/01 17:56:57;;;;;;;10.25;5.65;;;;;;;;;;8265476;28;20025;-74
2023/06/01 18:00:58;;;;;;;6.90;5.40;;;;;;;;;;8282485;28;20041;-74
2023/06/01 18:04:58;;;;;;;9.57;6.10;;;;;;;;;;8268558;28;20536;-75
2023/06/01 18:08:58;;;;;;;6.00;5.40;;;;;;;;;;8269776;28;20166;-75
2023/06/01 18:12:58;;;;;;;7.60;5.50;;;;;;;;;;8278945;28;20036;-75
2023/06/01 18:17:00;;;;;;;6.75;5.50;;;;;;;;;;8274718;28;20045;-76
2023/06/01 18:21:00;;;;;;;9.75;5.80;;;;;;;;;;8254764;28;20826;-75
2023/06/01 18:25:01;;;;;;;6.72;5.57;;;;;;;;;;8275512;28;20033;-75
2023/06/01 18:29:01;;;;;;;6.68;5.53;;;;;;;;;;8255351;28;20045;-72
2023/06/01 18:33:01;;;;;;;7.85;5.90;;;;;;;;;;8246192;28;20140;-74
2023/06/01 18:37:03;;;;;;;8.57;5.85;;;;;;;;;;8309037;28;20041;-75
2023/06/01 18:41:03;;;;;;;9.82;5.85;;;;;;;;;;8275922;28;20450;-72
2023/06/01 18:45:04;;;;;;;10.65;5.85;;;;;;;;;;8268465;28;20029;-72
2023/06/01 18:49:04;;;;;;;7.47;5.20;;;;;;;;;;8289743;28;20798;-73
2023/06/01 18:53:04;;;;;;;8.60;6.03;;;;;;;;;;8304991;28;20574;-74
2023/06/01 18:57:06;;;;;;;6.90;5.57;;;;;;;;;;8285164;28;20026;-72
2023/06/01 19:01:07;;;;;;;7.20;5.93;;;;;;;;;;8287699;28;20042;-73
2023/06/01 19:05:08;;;;;;;10.43;5.78;;;;;;;;;;8304738;28;20080;-77
2023/06/01 19:09:12;;;;;;;7.60;4.93;;;;;;;;;;8291653;28;20030;-76
2023/06/01 19:13:14;;;;;;;8.07;5.20;;;;;;;;;;8267963;28;20121;-73
2023/06/01 19:17:15;;;;;;;9.07;5.60;;;;;;;;;;8259311;28;20037;-72
2023/06/01 19:21:20;;;;;;;9.63;5.57;;;;;;;;;;8299756;28;20041;-75
2023/06/01 19:25:21;;;;;;;7.88;5.18;;;;;;;;;;8293759;28;20014;-76
2023/06/01 19:29:22;;;;;;;7.55;5.43;;;;;;;;;;8314766;28;20049;-76
2023/06/01 19:33:23;;;;;;;10.15;5.38;;;;;;;;;;8275151;28;20152;-76
2023/06/01 19:37:24;;;;;;;9.57;5.40;;;;;;;;;;8260738;28;20050;-74
2023/06/01 19:41:25;;;;;;;10.05;5.20;;;;;;;;;;8231600;28;20050;-75
2023/06/01 19:45:26;;;;;;;6.80;5.10;;;;;;;;;;8228130;28;20038;-75
2023/06/01 19:49:34;;;;;;;7.85;5.10;;;;;;;;;;8263870;28;20034;-74
2023/06/01 19:53:36;;;;;;;8.05;5.22;;;;;;;;;;8277904;28;20030;-75
2023/06/01 19:57:36;;;;;;;9.30;5.35;;;;;;;;;;8251009;28;20053;-76
2023/06/01 20:01:39;;;;;;;12.17;5.10;;;;;;;;;;8259799;28;20038;-75
2023/06/01 20:05:39;;;;;;;7.40;4.85;;;;;;;;;;8267458;28;20065;-75
2023/06/01 20:09:41;;;;;;;6.05;4.65;;;;;;;;;;8247411;28;20062;-75
2023/06/01 20:13:41;;;;;;;11.93;4.90;;;;;;;;;;8231455;28;21028;-74
2023/06/01 20:17:41;;;;;;;6.80;4.60;;;;;;;;;;8214579;28;20061;-75
2023/06/01 20:21:55;;;;;;;7.97;4.55;;;;;;;;;;8241872;28;20555;-74
2023/06/01 20:25:57;;;;;;;10.48;4.97;;;;;;;;;;8227804;28;20041;-74
2023/06/01 20:29:57;;;;;;;5.90;4.30;;;;;;;;;;8226611;28;20492;-74
2023/06/01 20:33:57;;;;;;;6.40;4.07;;;;;;;;;;8292759;28;20650;-75
2023/06/01 20:37:58;;;;;;;7.15;4.38;;;;;;;;;;8290862;28;20096;-75
2023/06/01 20:42:03;;;;;;;7.43;3.88;;;;;;;;;;8298662;28;20036;-75
2023/06/01 20:46:04;;;;;;;8.10;4.10;;;;;;;;;;8290292;28;20188;-73
2023/06/01 20:50:04;;;;;;;10.50;4.32;;;;;;;;;;8293746;28;20021;-74
2023/06/01 20:54:06;;;;;;;7.78;4.82;;;;;;;;;;8301975;28;20028;-74
2023/06/01 20:58:06;;;;;;;6.18;4.47;;;;;;;;;;8300135;28;20037;-74
2023/06/01 21:02:08;;;;;;;9.77;5.03;;;;;;;;;;8282597;28;20045;-75
2023/06/01 21:06:10;;;;;;;6.82;4.43;;;;;;;;;;8285916;28;20030;-74
2023/06/01 21:10:10;;;;;;;6.28;4.25;;;;;;;;;;8309906;28;20060;-75
2023/06/01 21:14:11;;;;;;;9.70;4.32;;;;;;;;;;8285279;28;20014;-75
2023/06/01 21:18:11;;;;;;;6.60;4.50;;;;;;;;;;8301724;28;20029;-74
2023/06/01 21:22:12;;;;;;;8.23;4.40;;;;;;;;;;8306071;28;20319;-74
2023/06/01 21:26:13;;;;;;;7.25;4.25;;;;;;;;;;8303624;28;20755;-74
2023/06/01 21:30:13;;;;;;;5.15;4.00;;;;;;;;;;8297413;28;20028;-74
2023/06/01 21:34:13;;;;;;;6.73;4.10;;;;;;;;;;8310669;28;20716;-75
2023/06/01 21:38:23;;;;;;;8.27;4.80;;;;;;;;;;8314292;28;20830;-75
2023/06/01 21:42:23;;;;;;;6.10;4.70;;;;;;;;;;8313130;28;20168;-75
2023/06/01 21:46:23;;;;;;;8.60;4.47;;;;;;;;;;8305364;28;20034;-74
2023/06/01 21:50:24;;;;;;;7.85;4.40;;;;;;;;;;8292377;28;20475;-74
2023/06/01 21:54:24;;;;;;;6.33;4.10;;;;;;;;;;8290784;28;20021;-73
2023/06/01 21:58:25;;;;;;;6.73;4.50;;;;;;;;;;8283352;28;21099;-74
2023/06/01 22:02:26;;;;;;;7.22;4.43;;;;;;;;;;8298245;28;20283;-75
2023/06/01 22:06:28;;;;;;;6.57;4.68;;;;;;;;;;8302622;28;20383;-74
2023/06/01 22:10:28;;;;;;;6.50;4.57;;;;;;;;;;8295406;28;20022;-74
2023/06/01 22:14:28;;;;;;;8.07;4.80;;;;;;;;;;8284750;28;20033;-74
2023/06/01 22:18:29;;;;;;;6.05;4.35;;;;;;;;;;8298279;28;20069;-75
2023/06/01 22:22:29;;;;;;;9.07;4.40;;;;;;;;;;8296850;28;21042;-75
2023/06/01 22:26:29;;;;;;;7.13;4.93;;;;;;;;;;8295644;28;20709;-74
2023/06/01 22:30:29;;;;;;;9.68;4.93;;;;;;;;;;8294911;28;20044;-74
2023/06/01 22:34:29;;;;;;;6.43;4.85;;;;;;;;;;8294026;28;20033;-75
2023/06/01 22:38:29;;;;;;;5.57;4.88;;;;;;;;;;8301872;28;21010;-74
2023/06/01 22:42:30;;;;;;;8.00;5.72;;;;;;;;;;8302719;28;20021;-75
2023/06/01 22:46:30;;;;;;;8.20;5.28;;;;;;;;;;8297057;28;20159;-75
2023/06/01 22:50:30;;;;;;;10.13;6.00;;;;;;;;;;8294796;28;21048;-74
2023/06/01 22:54:30;;;;;;;9.05;5.85;;;;;;;;;;8281583;28;20032;-73
2023/06/01 22:58:31;;;;;;;7.53;5.43;;;;;;;;;;8293708;28;20113;-74
2023/06/01 23:02:31;;;;;;;7.10;5.47;;;;;;;;;;8300978;28;20048;-75
2023/06/01 23:06:32;;;;;;;8.18;5.95;;;;;;;;;;8299077;28;20441;-74
2023/06/01 23:10:36;;;;;;;8.85;6.15;;;;;;;;;;8283315;28;20593;-74
2023/06/01 23:14:40;;;;;;;6.72;6.00;;;;;;;;;;8281584;28;20059;-73
2023/06/01 23:18:41;;;;;;;7.68;5.63;;;;;;;;;;8305647;28;20101;-74
2023/06/01 23:22:43;;;;;;;7.85;5.50;;;;;;;;;;8303417;28;20037;-74
2023/06/01 23:26:43;;;;;;;7.65;5.63;;;;;;;;;;8298716;28;20818;-74
2023/06/01 23:30:43;;;;;;;9.18;6.22;;;;;;;;;;8269378;28;20039;-74
2023/06/01 23:34:43;;;;;;;7.55;6.35;;;;;;;;;;8278519;28;20760;-74
2023/06/01 23:38:44;;;;;;;8.05;6.35;;;;;;;;;;8291812;28;20318;-74
2023/06/01 23:42:45;;;;;;;10.77;6.00;;;;;;;;;;8300516;28;20954;-74
2023/06/01 23:46:46;;;;;;;8.38;6.07;;;;;;;;;;8277830;28;20441;-74
2023/06/01 23:50:46;;;;;;;7.32;6.07;;;;;;;;;;8286908;28;20438;-75
2023/06/01 23:54:46;;;;;;;11.00;6.43;;;;;;;;;;8294411;28;20056;-73
2023/06/01 23:58:46;;;;;;;7.03;6.32;;;;;;;;;;8295410;28;20033;-73
